createdAt,value
2018-06-20T00:00:20.089Z,0.00
2018-06-20T00:01:20.347Z,0.00
2018-06-20T00:02:20.566Z,0.00
2018-06-20T00:03:20.811Z,0.00
2018-06-20T00:04:21.083Z,0.00
2018-06-20T00:05:21.285Z,0.00
2018-06-20T00:06:21.541Z,0.00
2018-06-20T00:07:21.823Z,0.00
2018-06-20T00:08:22.023Z,0.00
2018-06-20T00:09:22.265Z,0.00
2018-06-20T00:10:22.500Z,0.00
2018-06-20T00:11:22.768Z,0.00
2018-06-20T00:12:23.005Z,0.00
2018-06-20T00:13:23.256Z,0.00
2018-06-20T00:14:23.522Z,0.00
2018-06-20T00:15:23.738Z,0.00
2018-06-20T00:16:24.012Z,0.00
2018-06-20T00:17:24.235Z,0.00
2018-06-20T00:18:24.488Z,0.00
2018-06-20T00:19:24.686Z,0.00
2018-06-20T00:20:24.915Z,0.00
2018-06-20T00:21:25.184Z,0.00
2018-06-20T00:22:25.409Z,0.00
2018-06-20T00:23:25.628Z,0.00
2018-06-20T00:24:25.875Z,0.00
2018-06-20T00:25:26.113Z,0.00
2018-06-20T00:26:26.364Z,0.00
2018-06-20T00:27:26.615Z,0.00
2018-06-20T00:28:35.493Z,0.00
2018-06-20T00:29:27.275Z,0.00
2018-06-20T00:30:27.474Z,0.00
2018-06-20T00:31:27.739Z,0.00
2018-06-20T00:32:27.952Z,0.00
2018-06-20T00:33:28.183Z,0.00
2018-06-20T00:34:28.457Z,0.00
2018-06-20T00:35:28.674Z,0.00
2018-06-20T00:36:28.936Z,0.00
2018-06-20T00:37:29.148Z,0.00
2018-06-20T00:38:29.389Z,0.00
2018-06-20T00:39:29.619Z,0.00
2018-06-20T00:40:29.868Z,0.00
2018-06-20T00:41:30.113Z,0.00
2018-06-20T00:42:30.370Z,0.00
2018-06-20T00:43:30.602Z,0.00
2018-06-20T00:44:30.846Z,0.00
2018-06-20T00:45:31.078Z,0.00
2018-06-20T00:46:31.331Z,0.00
2018-06-20T00:47:31.560Z,0.00
2018-06-20T00:48:31.822Z,0.00
2018-06-20T00:49:32.033Z,0.00
2018-06-20T00:50:32.275Z,0.00
2018-06-20T00:51:32.508Z,0.00
2018-06-20T00:52:32.747Z,0.00
2018-06-20T00:53:32.998Z,0.00
2018-06-20T00:54:33.234Z,0.00
2018-06-20T00:55:33.470Z,0.00
2018-06-20T00:56:33.724Z,0.00
2018-06-20T00:57:33.952Z,0.00
2018-06-20T00:58:34.183Z,0.00
2018-06-20T00:59:34.450Z,0.00
2018-06-20T01:00:34.660Z,0.00
2018-06-20T01:01:34.892Z,0.00
2018-06-20T01:02:35.125Z,0.00
2018-06-20T01:03:35.369Z,0.00
2018-06-20T01:04:35.620Z,0.00
2018-06-20T01:05:35.851Z,0.00
2018-06-20T01:06:36.091Z,0.00
2018-06-20T01:07:36.325Z,0.00
2018-06-20T01:08:36.599Z,0.00
2018-06-20T01:09:36.820Z,0.00
2018-06-20T01:10:37.057Z,0.00
2018-06-20T01:11:37.335Z,0.00
2018-06-20T01:12:37.528Z,0.00
2018-06-20T01:13:37.771Z,0.00
2018-06-20T01:14:38.005Z,0.00
2018-06-20T01:15:38.265Z,0.00
2018-06-20T01:16:38.484Z,0.00
2018-06-20T01:17:38.728Z,0.00
2018-06-20T01:18:38.955Z,0.00
2018-06-20T01:19:39.194Z,0.00
2018-06-20T01:20:39.436Z,0.00
2018-06-20T01:21:39.665Z,0.00
2018-06-20T01:22:39.920Z,0.00
2018-06-20T01:23:40.162Z,0.00
2018-06-20T01:24:40.412Z,0.00
2018-06-20T01:25:40.647Z,0.00
2018-06-20T01:26:40.884Z,0.00
2018-06-20T01:27:41.127Z,0.00
2018-06-20T01:28:41.358Z,0.00
2018-06-20T01:29:41.620Z,0.00
2018-06-20T01:30:41.832Z,0.00
2018-06-20T01:31:42.076Z,0.00
2018-06-20T01:32:42.307Z,0.00
2018-06-20T01:33:42.565Z,0.00
2018-06-20T01:34:42.803Z,0.00
2018-06-20T01:35:43.043Z,0.00
2018-06-20T01:36:43.285Z,0.00
2018-06-20T01:37:43.528Z,0.00
2018-06-20T01:38:43.802Z,0.00
2018-06-20T01:39:44.013Z,0.00
2018-06-20T01:40:44.259Z,0.00
2018-06-20T01:41:44.492Z,0.00
2018-06-20T01:42:44.736Z,0.00
2018-06-20T01:43:44.955Z,0.00
2018-06-20T01:44:45.209Z,0.00
2018-06-20T01:45:45.440Z,0.00
2018-06-20T01:46:45.690Z,0.00
2018-06-20T01:47:45.919Z,0.00
2018-06-20T01:48:46.162Z,0.00
2018-06-20T01:49:46.404Z,0.00
2018-06-20T01:50:46.645Z,0.00
2018-06-20T01:51:46.874Z,0.00
2018-06-20T01:52:47.119Z,0.00
2018-06-20T01:53:47.351Z,0.00
2018-06-20T01:54:47.588Z,0.00
2018-06-20T01:55:47.857Z,0.00
2018-06-20T01:56:48.068Z,0.00
2018-06-20T01:57:48.310Z,0.00
2018-06-20T01:58:48.549Z,0.00
2018-06-20T01:59:48.783Z,0.00
2018-06-20T02:00:49.021Z,0.00
2018-06-20T02:01:49.276Z,0.00
2018-06-20T02:02:49.508Z,0.00
2018-06-20T02:03:49.741Z,0.00
2018-06-20T02:04:49.975Z,0.00
2018-06-20T02:05:50.215Z,0.00
2018-06-20T02:06:50.461Z,0.00
2018-06-20T02:07:50.687Z,0.00
2018-06-20T02:08:50.924Z,0.00
2018-06-20T02:09:51.171Z,0.00
2018-06-20T02:10:51.422Z,0.00
2018-06-20T02:11:51.657Z,0.00
2018-06-20T02:12:51.915Z,0.00
2018-06-20T02:13:52.130Z,0.00
2018-06-20T02:14:52.372Z,0.00
2018-06-20T02:15:52.605Z,0.00
2018-06-20T02:16:52.844Z,0.00
2018-06-20T02:17:53.086Z,0.00
2018-06-20T02:18:53.331Z,0.00
2018-06-20T02:19:53.575Z,0.00
2018-06-20T02:20:53.814Z,0.00
2018-06-20T02:21:54.056Z,4.00
2018-06-20T02:22:54.294Z,4.00
2018-06-20T02:23:54.533Z,4.00
2018-06-20T02:24:54.760Z,0.00
2018-06-20T02:25:55.004Z,4.00
2018-06-20T02:26:55.242Z,4.00
2018-06-20T02:27:55.486Z,0.00
2018-06-20T02:28:55.730Z,4.00
2018-06-20T02:29:55.971Z,4.00
2018-06-20T02:30:56.214Z,4.00
2018-06-20T02:31:56.443Z,8.00
2018-06-20T02:32:56.685Z,4.00
2018-06-20T02:33:56.912Z,8.00
2018-06-20T02:34:57.161Z,8.00
2018-06-20T02:35:57.388Z,8.00
2018-06-20T02:36:57.626Z,12.00
2018-06-20T02:37:57.873Z,12.00
2018-06-20T02:38:58.111Z,16.00
2018-06-20T02:39:58.347Z,20.00
2018-06-20T02:40:58.595Z,20.00
2018-06-20T02:41:58.831Z,20.00
2018-06-20T02:42:59.062Z,28.00
2018-06-20T02:43:59.297Z,24.00
2018-06-20T02:44:59.545Z,32.00
2018-06-20T02:45:59.778Z,36.00
2018-06-20T02:47:00.021Z,40.00
2018-06-20T02:48:00.255Z,48.00
2018-06-20T02:49:00.491Z,52.00
2018-06-20T02:50:00.733Z,56.00
2018-06-20T02:51:00.971Z,64.00
2018-06-20T02:52:01.208Z,76.00
2018-06-20T02:53:01.433Z,84.00
2018-06-20T02:54:01.671Z,92.00
2018-06-20T02:55:01.910Z,104.00
2018-06-20T02:56:02.147Z,116.00
2018-06-20T02:57:02.392Z,128.00
2018-06-20T02:58:02.627Z,140.00
2018-06-20T02:59:02.875Z,160.00
2018-06-20T03:00:03.111Z,176.00
2018-06-20T03:01:03.347Z,188.00
2018-06-20T03:02:03.630Z,208.00
2018-06-20T03:03:03.877Z,228.00
2018-06-20T03:04:04.115Z,248.00
2018-06-20T03:05:04.356Z,272.00
2018-06-20T03:06:04.600Z,296.00
2018-06-20T03:07:04.834Z,320.00
2018-06-20T03:08:05.071Z,348.00
2018-06-20T03:09:05.309Z,376.00
2018-06-20T03:10:05.554Z,400.00
2018-06-20T03:11:05.797Z,432.00
2018-06-20T03:12:06.036Z,464.00
2018-06-20T03:13:06.266Z,496.00
2018-06-20T03:14:06.493Z,528.00
2018-06-20T03:15:06.733Z,564.00
2018-06-20T03:16:06.973Z,600.00
2018-06-20T03:17:07.222Z,640.00
2018-06-20T03:18:07.442Z,676.00
2018-06-20T03:19:07.671Z,716.00
2018-06-20T03:20:07.944Z,760.00
2018-06-20T03:21:08.165Z,804.00
2018-06-20T03:22:08.400Z,840.00
2018-06-20T03:23:08.620Z,888.00
2018-06-20T03:24:08.865Z,932.00
2018-06-20T03:25:09.104Z,972.00
2018-06-20T03:26:09.350Z,1020.00
2018-06-20T03:27:09.586Z,1064.00
2018-06-20T03:28:09.826Z,1108.00
2018-06-20T03:29:10.072Z,1160.00
2018-06-20T03:30:10.309Z,1208.00
2018-06-20T03:31:10.547Z,1268.00
2018-06-20T03:32:10.788Z,1320.00
2018-06-20T03:33:11.032Z,1380.00
2018-06-20T03:34:11.313Z,1440.00
2018-06-20T03:35:11.519Z,1500.00
2018-06-20T03:36:11.773Z,1552.00
2018-06-20T03:37:12.017Z,1604.00
2018-06-20T03:38:12.250Z,1660.00
2018-06-20T03:39:12.485Z,1716.00
2018-06-20T03:40:12.722Z,1768.00
2018-06-20T03:41:12.953Z,1828.00
2018-06-20T03:42:13.190Z,1884.00
2018-06-20T03:43:13.415Z,1932.00
2018-06-20T03:44:13.645Z,1952.00
2018-06-20T03:45:13.889Z,2004.00
2018-06-20T03:46:14.130Z,2056.00
2018-06-20T03:47:14.372Z,2108.00
2018-06-20T03:48:14.616Z,2164.00
2018-06-20T03:49:14.853Z,2232.00
2018-06-20T03:50:15.092Z,2316.00
2018-06-20T03:51:15.327Z,2380.00
2018-06-20T03:52:15.569Z,2448.00
2018-06-20T03:53:15.806Z,2540.00
2018-06-20T03:54:16.044Z,2612.00
2018-06-20T03:55:16.299Z,2672.00
2018-06-20T03:56:16.531Z,2724.00
2018-06-20T03:57:16.782Z,2732.00
2018-06-20T03:58:17.006Z,2752.00
2018-06-20T03:59:17.272Z,2820.00
2018-06-20T04:00:17.494Z,2884.00
2018-06-20T04:01:17.715Z,2920.00
2018-06-20T04:02:17.982Z,2984.00
2018-06-20T04:03:18.196Z,3004.00
2018-06-20T04:04:18.434Z,3052.00
2018-06-20T04:05:18.670Z,3124.00
2018-06-20T04:06:18.911Z,3176.00
2018-06-20T04:07:19.160Z,3208.00
2018-06-20T04:08:19.392Z,3280.00
2018-06-20T04:09:19.633Z,3356.00
2018-06-20T04:10:19.906Z,3412.00
2018-06-20T04:11:20.126Z,3500.00
2018-06-20T04:12:20.360Z,3572.00
2018-06-20T04:13:20.583Z,3624.00
2018-06-20T04:14:20.843Z,3636.00
2018-06-20T04:15:21.056Z,3640.00
2018-06-20T04:16:30.501Z,3700.00
2018-06-20T04:17:31.670Z,3776.00
2018-06-20T04:18:22.107Z,3856.00
2018-06-20T04:19:22.279Z,3920.00
2018-06-20T04:20:22.492Z,3988.00
2018-06-20T04:21:22.738Z,4044.00
2018-06-20T04:22:22.977Z,4100.00
2018-06-20T04:23:23.217Z,4152.00
2018-06-20T04:24:23.454Z,4212.00
2018-06-20T04:25:23.682Z,4268.00
2018-06-20T04:26:23.934Z,4316.00
2018-06-20T04:27:24.194Z,4368.00
2018-06-20T04:28:24.408Z,4416.00
2018-06-20T04:29:24.645Z,4464.00
2018-06-20T04:30:24.879Z,4520.00
2018-06-20T04:31:25.118Z,4576.00
2018-06-20T04:32:25.397Z,4628.00
2018-06-20T04:33:35.573Z,4672.00
2018-06-20T04:34:26.142Z,4712.00
2018-06-20T04:35:36.553Z,4752.00
2018-06-20T04:37:59.993Z,4884.00
2018-06-20T04:38:59.768Z,4916.00
2018-06-20T04:39:59.933Z,4932.00
2018-06-20T04:41:00.171Z,4964.00
2018-06-20T04:42:00.415Z,4996.00
2018-06-20T04:43:00.666Z,5032.00
2018-06-20T04:44:00.926Z,5076.00
2018-06-20T04:45:01.159Z,5144.00
2018-06-20T04:46:01.378Z,5188.00
2018-06-20T04:47:01.606Z,5224.00
2018-06-20T04:48:01.852Z,5240.00
2018-06-20T04:49:02.097Z,5264.00
2018-06-20T04:50:02.329Z,5304.00
2018-06-20T04:51:02.581Z,5308.00
2018-06-20T04:52:12.865Z,5348.00
2018-06-20T04:53:13.203Z,5396.00
2018-06-20T04:54:03.522Z,5432.00
2018-06-20T04:55:03.718Z,5452.00
2018-06-20T04:56:03.940Z,5484.00
2018-06-20T04:57:04.165Z,5496.00
2018-06-20T04:58:04.411Z,5520.00
2018-06-20T04:59:04.672Z,5544.00
2018-06-20T05:00:04.886Z,5576.00
2018-06-20T05:01:05.123Z,5608.00
2018-06-20T05:02:05.360Z,5652.00
2018-06-20T05:03:05.596Z,5684.00
2018-06-20T05:04:05.859Z,5708.00
2018-06-20T05:05:06.074Z,5728.00
2018-06-20T05:06:06.315Z,5748.00
2018-06-20T05:07:06.584Z,5776.00
2018-06-20T05:08:06.801Z,5808.00
2018-06-20T05:09:07.035Z,5844.00
2018-06-20T05:10:07.292Z,5880.00
2018-06-20T05:11:07.532Z,5952.00
2018-06-20T05:12:07.766Z,6000.00
2018-06-20T05:13:08.003Z,6012.00
2018-06-20T05:14:08.236Z,6072.00
2018-06-20T05:15:08.489Z,6112.00
2018-06-20T05:16:08.705Z,6120.00
2018-06-20T05:17:08.966Z,6120.00
2018-06-20T05:18:09.199Z,6108.00
2018-06-20T05:19:09.442Z,6088.00
2018-06-20T05:20:09.682Z,6068.00
2018-06-20T05:21:09.920Z,6076.00
2018-06-20T05:22:10.157Z,6096.00
2018-06-20T05:23:10.395Z,6108.00
2018-06-20T05:24:10.659Z,6124.00
2018-06-20T05:25:10.920Z,6132.00
2018-06-20T05:26:11.156Z,6148.00
2018-06-20T05:27:11.392Z,6160.00
2018-06-20T05:28:11.629Z,6172.00
2018-06-20T05:29:11.894Z,6184.00
2018-06-20T05:30:12.150Z,6184.00
2018-06-20T05:31:12.388Z,6180.00
2018-06-20T05:32:12.638Z,6196.00
2018-06-20T05:33:12.869Z,6212.00
2018-06-20T05:34:13.120Z,6220.00
2018-06-20T05:35:13.360Z,6240.00
2018-06-20T05:36:13.603Z,6248.00
2018-06-20T05:37:13.843Z,6264.00
2018-06-20T05:38:14.094Z,6280.00
2018-06-20T05:39:14.321Z,6288.00
2018-06-20T05:40:14.557Z,6304.00
2018-06-20T05:41:14.802Z,6308.00
2018-06-20T05:42:15.037Z,6324.00
2018-06-20T05:43:15.277Z,6332.00
2018-06-20T05:44:15.521Z,6348.00
2018-06-20T05:45:15.763Z,6360.00
2018-06-20T05:46:16.005Z,6376.00
2018-06-20T05:47:16.249Z,6392.00
2018-06-20T05:48:16.493Z,6400.00
2018-06-20T05:49:16.746Z,6412.00
2018-06-20T05:50:16.983Z,6432.00
2018-06-20T05:51:17.224Z,6440.00
2018-06-20T05:52:17.462Z,6456.00
2018-06-20T05:53:17.706Z,6468.00
2018-06-20T05:54:17.950Z,6480.00
2018-06-20T05:55:18.193Z,6492.00
2018-06-20T05:56:18.439Z,6496.00
2018-06-20T05:57:18.684Z,6504.00
2018-06-20T05:58:18.925Z,6520.00
2018-06-20T05:59:19.169Z,6532.00
2018-06-20T06:00:19.416Z,6544.00
2018-06-20T06:01:19.655Z,6548.00
2018-06-20T06:02:19.898Z,6556.00
2018-06-20T06:03:20.142Z,6568.00
2018-06-20T06:04:20.387Z,6588.00
2018-06-20T06:05:20.631Z,6608.00
2018-06-20T06:06:20.876Z,6620.00
2018-06-20T06:07:21.121Z,6640.00
2018-06-20T06:08:21.363Z,6644.00
2018-06-20T06:09:21.610Z,6660.00
2018-06-20T06:10:21.851Z,6672.00
2018-06-20T06:11:22.098Z,6696.00
2018-06-20T06:12:22.340Z,6716.00
2018-06-20T06:13:22.586Z,6716.00
2018-06-20T06:14:22.831Z,6736.00
2018-06-20T06:15:23.088Z,6760.00
2018-06-20T06:16:23.321Z,6780.00
2018-06-20T06:17:23.566Z,6792.00
2018-06-20T06:18:23.811Z,6808.00
2018-06-20T06:19:24.054Z,6824.00
2018-06-20T06:20:24.299Z,6852.00
2018-06-20T06:21:24.545Z,6868.00
2018-06-20T06:22:24.789Z,6892.00
2018-06-20T06:23:25.036Z,6912.00
2018-06-20T06:24:25.282Z,6936.00
2018-06-20T06:25:25.526Z,6952.00
2018-06-20T06:26:25.771Z,6980.00
2018-06-20T06:27:26.019Z,7008.00
2018-06-20T06:28:26.262Z,7032.00
2018-06-20T06:29:26.508Z,7064.00
2018-06-20T06:30:26.755Z,7092.00
2018-06-20T06:31:26.996Z,7116.00
2018-06-20T06:32:27.241Z,7140.00
2018-06-20T06:33:27.478Z,7164.00
2018-06-20T06:34:27.725Z,7180.00
2018-06-20T06:35:27.971Z,7208.00
2018-06-20T06:36:28.220Z,7228.00
2018-06-20T06:37:28.458Z,7268.00
2018-06-20T06:38:28.706Z,7304.00
2018-06-20T06:39:28.948Z,7324.00
2018-06-20T06:40:29.195Z,7352.00
2018-06-20T06:41:29.440Z,7376.00
2018-06-20T06:42:29.685Z,7408.00
2018-06-20T06:43:29.930Z,7420.00
2018-06-20T06:44:30.176Z,7448.00
2018-06-20T06:45:30.422Z,7468.00
2018-06-20T06:46:30.666Z,7492.00
2018-06-20T06:47:30.913Z,7520.00
2018-06-20T06:48:31.158Z,7540.00
2018-06-20T06:49:31.407Z,7572.00
2018-06-20T06:50:31.653Z,7600.00
2018-06-20T06:51:31.892Z,7604.00
2018-06-20T06:52:32.141Z,7608.00
2018-06-20T06:53:32.383Z,7632.00
2018-06-20T06:54:32.629Z,7644.00
2018-06-20T06:55:32.876Z,7680.00
2018-06-20T06:56:33.128Z,7684.00
2018-06-20T06:57:33.367Z,7708.00
2018-06-20T06:58:33.614Z,7744.00
2018-06-20T06:59:33.862Z,7768.00
2018-06-20T07:00:34.112Z,7788.00
2018-06-20T07:01:34.353Z,7804.00
2018-06-20T07:02:34.654Z,7848.00
2018-06-20T07:03:34.842Z,7868.00
2018-06-20T07:04:35.087Z,7872.00
2018-06-20T07:05:35.333Z,7912.00
2018-06-20T07:06:35.578Z,7944.00
2018-06-20T07:07:35.827Z,8012.00
2018-06-20T07:08:36.068Z,8068.00
2018-06-20T07:09:36.315Z,8100.00
2018-06-20T07:10:36.561Z,8144.00
2018-06-20T07:11:36.806Z,8176.00
2018-06-20T07:12:37.053Z,8244.00
2018-06-20T07:13:37.296Z,8312.00
2018-06-20T07:14:37.542Z,8280.00
2018-06-20T07:15:37.787Z,8340.00
2018-06-20T07:16:38.033Z,8368.00
2018-06-20T07:17:38.279Z,8356.00
2018-06-20T07:18:38.525Z,8404.00
2018-06-20T07:19:38.769Z,8432.00
2018-06-20T07:20:39.015Z,8460.00
2018-06-20T07:21:39.258Z,8524.00
2018-06-20T07:22:39.504Z,8576.00
2018-06-20T07:23:39.752Z,8720.00
2018-06-20T07:24:40.005Z,9760.00
2018-06-20T07:25:40.247Z,11204.00
2018-06-20T07:26:40.490Z,12284.00
2018-06-20T07:27:40.742Z,12432.00
2018-06-20T07:28:40.990Z,12360.00
2018-06-20T07:29:41.236Z,12712.00
2018-06-20T07:30:41.509Z,13396.00
2018-06-20T07:31:41.727Z,13488.00
2018-06-20T07:32:41.975Z,13432.00
2018-06-20T07:33:42.223Z,13284.00
2018-06-20T07:34:42.469Z,13888.00
2018-06-20T07:35:42.870Z,14420.00
2018-06-20T07:36:42.967Z,15492.00
2018-06-20T07:37:43.213Z,15892.00
2018-06-20T07:38:43.460Z,16352.00
2018-06-20T07:39:43.709Z,15672.00
2018-06-20T07:40:43.958Z,15856.00
2018-06-20T07:41:44.208Z,15836.00
2018-06-20T07:42:44.459Z,15828.00
2018-06-20T07:43:44.707Z,16896.00
2018-06-20T07:44:44.957Z,16800.00
2018-06-20T07:45:45.210Z,16576.00
2018-06-20T07:46:45.465Z,17312.00
2018-06-20T07:47:45.748Z,18208.00
2018-06-20T07:48:45.959Z,18688.00
2018-06-20T07:49:46.207Z,16332.00
2018-06-20T07:50:46.486Z,17024.00
2018-06-20T07:51:46.709Z,16500.00
2018-06-20T07:52:46.958Z,17120.00
2018-06-20T07:53:47.208Z,17536.00
2018-06-20T07:54:47.459Z,18592.00
2018-06-20T07:55:47.761Z,16572.00
2018-06-20T07:56:47.960Z,15648.00
2018-06-20T07:57:48.206Z,14360.00
2018-06-20T07:58:48.456Z,17024.00
2018-06-20T07:59:48.707Z,17472.00
2018-06-20T08:00:49.004Z,18016.00
2018-06-20T08:01:49.211Z,19040.00
2018-06-20T08:02:49.462Z,18880.00
2018-06-20T08:03:49.712Z,18592.00
2018-06-20T08:04:49.963Z,19296.00
2018-06-20T08:05:50.215Z,21792.00
2018-06-20T08:06:50.466Z,20704.00
2018-06-20T08:07:50.714Z,17216.00
2018-06-20T08:08:50.965Z,14296.00
2018-06-20T08:09:51.220Z,14816.00
2018-06-20T08:10:51.466Z,15928.00
2018-06-20T08:11:51.718Z,16300.00
2018-06-20T08:12:51.967Z,16380.00
2018-06-20T08:13:52.222Z,15408.00
2018-06-20T08:14:52.475Z,15172.00
2018-06-20T08:15:52.719Z,15204.00
2018-06-20T08:16:52.970Z,15656.00
2018-06-20T08:17:53.220Z,16124.00
2018-06-20T08:18:53.517Z,17344.00
2018-06-20T08:19:53.721Z,17920.00
2018-06-20T08:20:53.976Z,18400.00
2018-06-20T08:21:54.227Z,18720.00
2018-06-20T08:22:54.478Z,18080.00
2018-06-20T08:23:54.729Z,18432.00
2018-06-20T08:24:54.980Z,17856.00
2018-06-20T08:25:55.229Z,15732.00
2018-06-20T08:26:55.481Z,15380.00
2018-06-20T08:27:55.734Z,16012.00
2018-06-20T08:28:55.989Z,16184.00
2018-06-20T08:29:56.235Z,15828.00
2018-06-20T08:30:56.488Z,15520.00
2018-06-20T08:31:56.743Z,15916.00
2018-06-20T08:32:56.997Z,16184.00
2018-06-20T08:33:57.247Z,16012.00
2018-06-20T08:34:57.497Z,16024.00
2018-06-20T08:35:57.749Z,16364.00
2018-06-20T08:36:58.023Z,18560.00
2018-06-20T08:37:58.253Z,21792.00
2018-06-20T08:38:58.505Z,24512.00
2018-06-20T08:39:58.758Z,26144.00
2018-06-20T08:40:59.010Z,29664.00
2018-06-20T08:41:59.257Z,32864.00
2018-06-20T08:42:59.514Z,34432.00
2018-06-20T08:43:59.766Z,34912.00
2018-06-20T08:45:00.022Z,30752.00
2018-06-20T08:46:00.272Z,34368.00
2018-06-20T08:47:00.525Z,36768.00
2018-06-20T08:48:00.777Z,37216.00
2018-06-20T08:49:01.029Z,27904.00
2018-06-20T08:50:01.283Z,19232.00
2018-06-20T08:51:01.535Z,19616.00
2018-06-20T08:52:01.787Z,22016.00
2018-06-20T08:53:02.047Z,24448.00
2018-06-20T08:54:02.293Z,17808.00
2018-06-20T08:55:02.542Z,35968.00
2018-06-20T08:56:02.796Z,38016.00
2018-06-20T08:57:03.050Z,30464.00
2018-06-20T08:58:03.302Z,40096.00
2018-06-20T08:59:03.557Z,41984.00
2018-06-20T09:00:03.805Z,44000.00
2018-06-20T09:01:04.055Z,45728.00
2018-06-20T09:02:04.327Z,18944.00
2018-06-20T09:03:04.561Z,17340.00
2018-06-20T09:04:04.818Z,26240.00
2018-06-20T09:05:05.067Z,38560.00
2018-06-20T09:06:05.321Z,27552.00
2018-06-20T09:07:05.574Z,23072.00
2018-06-20T09:08:05.825Z,23776.00
2018-06-20T09:09:06.085Z,48832.00
2018-06-20T09:10:06.329Z,49408.00
2018-06-20T09:11:06.582Z,50080.00
2018-06-20T09:12:06.836Z,49472.00
2018-06-20T09:13:07.087Z,48736.00
2018-06-20T09:14:07.340Z,47712.00
2018-06-20T09:15:07.595Z,24800.00
2018-06-20T09:16:07.847Z,49632.00
2018-06-20T09:17:08.101Z,18688.00
2018-06-20T09:18:08.344Z,20064.00
2018-06-20T09:19:08.591Z,22784.00
2018-06-20T09:20:08.843Z,25632.00
2018-06-20T09:21:09.100Z,28288.00
2018-06-20T09:22:09.338Z,18176.00
2018-06-20T09:23:09.592Z,18944.00
2018-06-20T09:24:09.841Z,52896.00
2018-06-20T09:25:10.090Z,21312.00
2018-06-20T09:26:10.342Z,19680.00
2018-06-20T09:27:10.692Z,16736.00
2018-06-20T09:28:10.955Z,21088.00
2018-06-20T09:29:11.334Z,54528.00
2018-06-20T09:30:11.593Z,54272.00
2018-06-20T09:31:11.847Z,56576.00
2018-06-20T09:32:12.100Z,57728.00
2018-06-20T09:33:12.346Z,60800.00
2018-06-20T09:34:12.597Z,55328.00
2018-06-20T09:35:12.851Z,28640.00
2018-06-20T09:36:13.102Z,24992.00
2018-06-20T09:37:13.357Z,28576.00
2018-06-20T09:38:13.612Z,60864.00
2018-06-20T09:39:13.866Z,27328.00
2018-06-20T09:40:14.118Z,18528.00
2018-06-20T09:41:14.385Z,22272.00
2018-06-20T09:42:14.621Z,24544.00
2018-06-20T09:43:14.871Z,55360.00
2018-06-20T09:44:15.127Z,60896.00
2018-06-20T09:45:15.379Z,65312.00
2018-06-20T09:46:15.610Z,64672.00
2018-06-20T09:47:24.600Z,66592.00
2018-06-20T09:48:16.257Z,66944.00
2018-06-20T09:49:16.529Z,67200.00
2018-06-20T09:50:16.757Z,68192.00
2018-06-20T09:51:17.019Z,70656.00
2018-06-20T09:52:17.241Z,70912.00
2018-06-20T09:53:17.489Z,40096.00
2018-06-20T09:54:17.778Z,22784.00
2018-06-20T09:55:17.998Z,26112.00
2018-06-20T09:56:18.241Z,56576.00
2018-06-20T09:57:18.489Z,31520.00
2018-06-20T09:58:18.753Z,24704.00
2018-06-20T09:59:18.989Z,26720.00
2018-06-20T10:00:19.232Z,22656.00
2018-06-20T10:01:19.490Z,21312.00
2018-06-20T10:02:19.753Z,23008.00
2018-06-20T10:03:19.998Z,58912.00
2018-06-20T10:04:20.251Z,65792.00
2018-06-20T10:05:20.506Z,67680.00
2018-06-20T10:06:20.769Z,26496.00
2018-06-20T10:07:21.022Z,19104.00
2018-06-20T10:08:21.255Z,19488.00
2018-06-20T10:09:21.513Z,20288.00
2018-06-20T10:10:21.751Z,21536.00
2018-06-20T10:11:21.996Z,24128.00
2018-06-20T10:12:22.251Z,27840.00
2018-06-20T10:13:22.510Z,28032.00
2018-06-20T10:14:22.751Z,74208.00
2018-06-20T10:15:22.990Z,46624.00
2018-06-20T10:16:23.241Z,74912.00
2018-06-20T10:17:23.493Z,77760.00
2018-06-20T10:18:23.744Z,75904.00
2018-06-20T10:19:24.014Z,75232.00
2018-06-20T10:20:24.245Z,78592.00
2018-06-20T10:21:24.508Z,76448.00
2018-06-20T10:22:24.759Z,71968.00
2018-06-20T10:23:25.014Z,72064.00
2018-06-20T10:24:25.246Z,80000.00
2018-06-20T10:25:25.522Z,25824.00
2018-06-20T10:26:25.771Z,25504.00
2018-06-20T10:27:26.029Z,25344.00
2018-06-20T10:28:26.329Z,33856.00
2018-06-20T10:29:26.535Z,80832.00
2018-06-20T10:30:26.772Z,76352.00
2018-06-20T10:31:27.019Z,24576.00
2018-06-20T10:32:27.280Z,79456.00
2018-06-20T10:33:27.536Z,81632.00
2018-06-20T10:34:27.776Z,81088.00
2018-06-20T10:35:28.027Z,52096.00
2018-06-20T10:36:28.281Z,19168.00
2018-06-20T10:37:28.530Z,75072.00
2018-06-20T10:38:28.776Z,59296.00
2018-06-20T10:39:29.028Z,81728.00
2018-06-20T10:40:29.278Z,80192.00
2018-06-20T10:41:29.532Z,79520.00
2018-06-20T10:42:30.042Z,77376.00
2018-06-20T10:43:30.107Z,76640.00
2018-06-20T10:44:30.368Z,77472.00
2018-06-20T10:45:30.626Z,80032.00
2018-06-20T10:46:30.873Z,83424.00
2018-06-20T10:47:31.123Z,85344.00
2018-06-20T10:48:31.362Z,83296.00
2018-06-20T10:49:31.625Z,37632.00
2018-06-20T10:50:31.878Z,23904.00
2018-06-20T10:51:32.130Z,68800.00
2018-06-20T10:52:32.373Z,76576.00
2018-06-20T10:53:32.616Z,76384.00
2018-06-20T10:54:32.875Z,80800.00
2018-06-20T10:55:33.130Z,65120.00
2018-06-20T10:56:33.391Z,84448.00
2018-06-20T10:57:33.648Z,32192.00
2018-06-20T10:58:33.891Z,37088.00
2018-06-20T10:59:34.137Z,30752.00
2018-06-20T11:00:34.410Z,22816.00
2018-06-20T11:01:34.647Z,27040.00
2018-06-20T11:02:34.895Z,53856.00
2018-06-20T11:03:35.151Z,64128.00
2018-06-20T11:04:35.401Z,20160.00
2018-06-20T11:05:35.647Z,83008.00
2018-06-20T11:06:35.890Z,84832.00
2018-06-20T11:07:36.160Z,82976.00
2018-06-20T11:08:36.399Z,80544.00
2018-06-20T11:09:46.272Z,79456.00
2018-06-20T11:10:36.927Z,78112.00
2018-06-20T11:11:37.153Z,78688.00
2018-06-20T11:12:37.404Z,80288.00
2018-06-20T11:13:37.672Z,55360.00
2018-06-20T11:14:37.931Z,31072.00
2018-06-20T11:15:38.498Z,78592.00
2018-06-20T11:16:38.591Z,66944.00
2018-06-20T11:17:38.717Z,75584.00
2018-06-20T11:18:38.960Z,72352.00
2018-06-20T11:19:39.216Z,72416.00
2018-06-20T11:20:39.461Z,73888.00
2018-06-20T11:21:39.718Z,73280.00
2018-06-20T11:22:39.969Z,72480.00
2018-06-20T11:23:40.219Z,74240.00
2018-06-20T11:24:40.474Z,75712.00
2018-06-20T11:25:40.721Z,79136.00
2018-06-20T11:26:40.980Z,80096.00
2018-06-20T11:27:41.234Z,78272.00
2018-06-20T11:28:41.481Z,78112.00
2018-06-20T11:29:41.729Z,80896.00
2018-06-20T11:30:41.995Z,81184.00
2018-06-20T11:31:42.220Z,78848.00
2018-06-20T11:32:42.488Z,78272.00
2018-06-20T11:33:42.712Z,78464.00
2018-06-20T11:34:42.959Z,76544.00
2018-06-20T11:35:43.205Z,78048.00
2018-06-20T11:36:43.458Z,79392.00
2018-06-20T11:37:43.712Z,82688.00
2018-06-20T11:38:43.967Z,83424.00
2018-06-20T11:39:44.238Z,81856.00
2018-06-20T11:40:44.531Z,77792.00
2018-06-20T11:41:44.766Z,76832.00
2018-06-20T11:42:45.101Z,31680.00
2018-06-20T11:43:45.390Z,63936.00
2018-06-20T11:44:45.720Z,52608.00
2018-06-20T11:45:45.893Z,78528.00
2018-06-20T11:46:46.146Z,76384.00
2018-06-20T11:47:46.408Z,73312.00
2018-06-20T11:48:46.661Z,79008.00
2018-06-20T11:49:46.951Z,87680.00
2018-06-20T11:50:47.188Z,84640.00
2018-06-20T11:51:47.423Z,21920.00
2018-06-20T11:52:47.680Z,72384.00
2018-06-20T11:53:48.671Z,49056.00
2018-06-20T11:54:48.332Z,81824.00
2018-06-20T11:55:48.601Z,86816.00
2018-06-20T11:56:48.861Z,82944.00
2018-06-20T11:57:49.109Z,77760.00
2018-06-20T11:58:49.366Z,78784.00
2018-06-20T11:59:49.665Z,85120.00
2018-06-20T12:00:49.933Z,84992.00
2018-06-20T12:01:50.231Z,82656.00
2018-06-20T12:02:50.445Z,85600.00
2018-06-20T12:03:50.726Z,87264.00
2018-06-20T12:04:50.980Z,88576.00
2018-06-20T12:05:51.239Z,84384.00
2018-06-20T12:06:51.493Z,40480.00
2018-06-20T12:07:51.753Z,85792.00
2018-06-20T12:08:52.008Z,84320.00
2018-06-20T12:09:52.269Z,85408.00
2018-06-20T12:10:52.520Z,85632.00
2018-06-20T12:11:52.776Z,84224.00
2018-06-20T12:12:53.031Z,85536.00
2018-06-20T12:13:53.276Z,87136.00
2018-06-20T12:14:53.524Z,85760.00
2018-06-20T12:15:53.770Z,83360.00
2018-06-20T12:16:54.019Z,85120.00
2018-06-20T12:17:54.270Z,87872.00